Flight Track Log - Related Links

Times and Time Zones

All times are in EDT time to prevent confusion due to time zone crossing. See the N53NW flight status page for this flight to view local times or setup timezone preferences in your user account.

Time Position Orientation Groundspeed Altitude Reporting Facility
EDT Latitude Longitude Course Direction KTS MPH feet Rate Location/Type
Tue 10:55:03 AM 28.1000 -80.6833 296° West 197 227 1,400  Level Orlando TRACON
Tue 10:56:45 AM 28.1500 -80.8000 296° West 273 314 5,000 2,192 Climbing Orlando TRACON
Tue 10:57:39 AM 28.1833 -80.8667 300° West 262 302 7,100 2,579 Climbing Orlando TRACON
Tue 10:58:39 AM 28.2500 -80.9167 327° Northwest 274 315 9,900 2,505 Climbing Orlando TRACON
Tue 11:00:41 AM 28.3492 -81.0222 317° Northwest 267 307 14,700 2,011 Climbing Jacksonville Center
Tue 11:01:41 AM 28.3961 -81.0969 306° West 278 320 16,000 650 Climbing Jacksonville Center
Tue 11:02:41 AM 28.4517 -81.1881 305° West 312 359 16,000 -50 Level Jacksonville Center
Tue 11:03:41 AM 28.5050 -81.2767 304° West 339 390 15,900 900 Descending Jacksonville Center
Tue 11:04:41 AM 28.5019 -81.3808 268° West 316 364 17,800 1,900 Climbing Jacksonville Center
Tue 11:05:41 AM 28.4947 -81.4800 265° West 316 364 19,700 1,950 Climbing Jacksonville Center
Tue 11:06:41 AM 28.4897 -81.5794 267° West 316 364 21,700 2,000 Climbing Jacksonville Center
Tue 11:07:41 AM 28.4822 -81.6739 265° West 310 357 23,700 2,100 Climbing Jacksonville Center
Tue 11:08:41 AM 28.4728 -81.7778 264° West 310 357 25,900 1,150 Climbing Jacksonville Center
Tue 11:09:41 AM 28.4653 -81.8842 265° West 326 375 26,000 500 Climbing Jacksonville Center
Tue 11:10:41 AM 28.4681 -82.0000 272° West 350 403 26,900 1,200 Climbing Jacksonville Center
Tue 11:11:41 AM 28.4772 -82.0992 276° West 350 403 28,400 1,650 Climbing Jacksonville Center
Tue 11:12:41 AM 28.4903 -82.2075 278° West 355 409 30,200 1,800 Climbing Jacksonville Center
Tue 11:13:41 AM 28.5056 -82.3092 280° West 349 402 32,000 1,600 Climbing Jacksonville Center
Tue 11:14:41 AM 28.5142 -82.4106 276° West 337 388 33,400 1,400 Climbing Jacksonville Center
Tue 11:15:41 AM 28.5250 -82.5144 277° West 331 381 34,800 1,250 Climbing Jacksonville Center
Tue 11:16:41 AM 28.5356 -82.6161 277° West 331 381 35,900 1,100 Climbing Jacksonville Center
Tue 11:17:41 AM 28.5650 -82.7200 288° West 336 387 37,000 1,000 Climbing Jacksonville Center
Tue 11:18:41 AM 28.6172 -82.8144 302° West 336 387 37,900 850 Climbing Jacksonville Center
Tue 11:19:41 AM 28.6736 -82.9067 305° West 352 405 38,700 800 Climbing Jacksonville Center
Tue 11:20:41 AM 28.7258 -82.9967 304° West 352 405 39,500 650 Climbing Jacksonville Center
Tue 11:21:41 AM 28.7842 -83.0939 304° West 364 419 40,000 250 Climbing Jacksonville Center
Tue 11:22:41 AM 28.8444 -83.1983 303° West 381 438 40,000  Level Jacksonville Center
Tue 11:23:41 AM 28.9047 -83.3028 303° West 393 452 40,000  Level Jacksonville Center
Tue 11:24:41 AM 28.9692 -83.4100 305° West 399 459 40,000  Level Jacksonville Center
Tue 11:25:41 AM 29.0292 -83.5078 305° West 394 453 40,000  Level Jacksonville Center
Tue 11:26:41 AM 29.0892 -83.6125 303° West 394 453 40,000  Level Jacksonville Center
Tue 11:27:41 AM 29.1511 -83.7175 304° West 394 453 40,000  Level Jacksonville Center
Tue 11:28:41 AM 29.2131 -83.8253 303° West 394 453 40,000  Level Jacksonville Center
Tue 11:29:41 AM 29.2747 -83.9281 305° West 394 453 40,000  Level Jacksonville Center
Tue 11:30:41 AM 29.3367 -84.0361 303° West 394 453 40,000  Level Jacksonville Center
Tue 11:31:41 AM 29.3983 -84.1392 304° West 394 453 40,000  Level Jacksonville Center
Tue 11:32:41 AM 29.4556 -84.2425 302° West 394 453 40,000  Level Jacksonville Center
Tue 11:33:41 AM 29.5172 -84.3458 304° West 394 453 40,000  Level Jacksonville Center
Tue 11:34:41 AM 29.5764 -84.4494 303° West 394 453 40,000  Level Jacksonville Center
Tue 11:35:41 AM 29.6439 -84.5606 305° West 394 453 40,000  Level Jacksonville Center
Tue 11:36:41 AM 29.7008 -84.6667 302° West 394 453 40,000  Level Jacksonville Center
Tue 11:37:41 AM 29.7600 -84.7706 303° West 394 453 40,000  Level Jacksonville Center
Tue 11:38:41 AM 29.8211 -84.8747 304° West 394 453 40,000  Level Jacksonville Center
Tue 11:39:41 AM 29.8800 -84.9767 304° West 394 453 40,000  Level Jacksonville Center
Tue 11:40:41 AM 29.9367 -85.0761 303° West 388 447 40,000  Level Jacksonville Center
Tue 11:41:41 AM 29.9956 -85.1781 304° West 388 447 40,000  Level Jacksonville Center
Tue 11:42:41 AM 30.0522 -85.2803 303° West 388 447 40,000  Level Jacksonville Center
Tue 11:43:41 AM 30.1089 -85.3728 305° West 394 453 40,000  Level Jacksonville Center
Tue 11:44:41 AM 30.1692 -85.4922 300° West 395 455 40,000  Level Jacksonville Center
Tue 11:45:41 AM 30.2253 -85.5969 302° West 396 456 40,000  Level Jacksonville Center
Tue 11:46:41 AM 30.2858 -85.6900 307° West 399 459 40,000  Level Jacksonville Center
Tue 11:47:41 AM 30.3419 -85.7953 302° West 399 459 40,000  Level Jacksonville Center
Tue 11:48:41 AM 30.3981 -85.8981 302° West 394 453 40,000  Level Jacksonville Center
Tue 11:49:41 AM 30.4244 -86.0144 285° West 380 437 40,000  Level Jacksonville Center
Tue 11:50:41 AM 30.4403 -86.1331 279° West 373 429 40,000  Level Jacksonville Center
Tue 11:51:41 AM 30.4561 -86.2517 279° West 373 429 40,000  Level Jacksonville Center
Tue 11:52:41 AM 30.4714 -86.3775 278° West 379 436 40,000  Level Jacksonville Center
Tue 11:53:41 AM 30.4892 -86.4964 280° West 384 442 40,000  Level Jacksonville Center
Tue 11:54:41 AM 30.5064 -86.6175 279° West 389 448 40,000  Level Jacksonville Center
Tue 11:55:41 AM 30.5217 -86.7411 278° West 389 448 40,000  Level Jacksonville Center
Tue 11:56:41 AM 30.5367 -86.8622 278° West 389 448 40,000  Level Jacksonville Center
Tue 11:57:41 AM 30.5517 -86.9833 278° West 389 448 40,000  Level Jacksonville Center
Tue 11:58:41 AM 30.5686 -87.1022 279° West 389 448 40,000  Level Jacksonville Center
Tue 11:59:41 AM 30.5856 -87.2214 279° West 389 448 40,000  Level Jacksonville Center
Tue 12:01:42 PM 30.6200 -87.4828 279° West 387 445 40,000  Level Houston Center
Tue 12:02:44 PM 30.6319 -87.6067 276° West 387 445 40,000  Level Houston Center
Tue 12:03:47 PM 30.6483 -87.7253 279° West 385 443 40,000  Level Houston Center
Tue 12:04:49 PM 30.6644 -87.8503 279° West 391 450 40,000  Level Houston Center
Tue 12:05:51 PM 30.6806 -87.9753 279° West 392 451 40,000  Level Houston Center
Tue 12:06:52 PM 30.6989 -88.1261 278° West 394 453 40,000  Level Houston Center
Tue 12:07:54 PM 30.7133 -88.2514 278° West 395 455 40,000  Level Houston Center
Tue 12:08:57 PM 30.7261 -88.3778 277° West 395 455 40,000  Level Houston Center
Tue 12:09:59 PM 30.7153 -88.5061 264° West 400 460 40,000  Level Houston Center
Tue 12:11:01 PM 30.7058 -88.6336 265° West 400 460 40,000  Level Houston Center
Tue 12:12:03 PM 30.6956 -88.7628 265° West 401 461 40,000  Level Houston Center
Tue 12:13:05 PM 30.6433 -88.9103 248° West 413 475 40,000  Level Houston Center
Tue 12:14:07 PM 30.5989 -89.0319 247° West 413 475 40,000  Level Houston Center
Tue 12:15:09 PM 30.5519 -89.1544 246° West 414 476 40,000  Level Houston Center
Tue 12:16:11 PM 30.5056 -89.2747 246° West 413 475 40,000  Level Houston Center
Tue 12:17:13 PM 30.4603 -89.3964 247° West 411 473 40,000  Level Houston Center
Tue 12:18:15 PM 30.4142 -89.5169 246° West 410 472 40,000  Level Houston Center
Tue 12:19:17 PM 30.3575 -89.6617 246° West 410 472 40,000  Level Houston Center
Tue 12:20:20 PM 30.3114 -89.7789 246° West 425 489 40,000  Level Houston Center
Tue 12:21:22 PM 30.2578 -89.9217 247° West 417 480 40,000  Level Houston Center
Tue 12:22:24 PM 30.2111 -90.0444 246° West 425 489 40,000  Level Houston Center
Tue 12:23:26 PM 30.1633 -90.1653 245° Southwest 422 486 40,000  Level Houston Center
Tue 12:24:28 PM 30.1167 -90.2856 246° West 416 479 40,000  Level Houston Center
Tue 12:25:30 PM 30.0692 -90.4072 246° West 417 480 40,000  Level Houston Center
Tue 12:26:32 PM 30.0211 -90.5278 245° Southwest 415 478 40,000  Level Houston Center
Tue 12:27:34 PM 29.9642 -90.6739 246° West 417 480 40,000  Level Houston Center
Tue 12:28:36 PM 29.9158 -90.7950 245° Southwest 416 479 40,000  Level Houston Center
Tue 12:29:39 PM 29.8681 -90.9172 246° West 418 481 40,000  Level Houston Center
Tue 12:30:41 PM 29.8206 -91.0389 246° West 419 482 40,000  Level Houston Center
Tue 12:31:43 PM 29.7714 -91.1600 245° Southwest 418 481 40,000  Level Houston Center
Tue 12:32:45 PM 29.7272 -91.2833 248° West 419 482 40,000  Level Houston Center
Tue 12:33:47 PM 29.7089 -91.4403 262° West 414 476 40,000  Level Houston Center
Tue 12:34:49 PM 29.6922 -91.5719 262° West 415 478 40,000  Level Houston Center
Tue 12:35:51 PM 29.6756 -91.7022 262° West 415 478 40,000  Level Houston Center
Tue 12:36:53 PM 29.6553 -91.8439 261° West 417 480 40,000  Level Houston Center
Tue 12:37:56 PM 29.6372 -91.9758 261° West 418 481 40,000  Level Houston Center
Tue 12:38:58 PM 29.6189 -92.1075 261° West 418 481 40,000  Level Houston Center
Tue 12:40:00 PM 29.6003 -92.2389 261° West 417 480 40,000  Level Houston Center
Tue 12:41:02 PM 29.5825 -92.3719 261° West 419 482 40,000  Level Houston Center
Tue 12:42:04 PM 29.5603 -92.5275 261° West 414 476 40,000  Level Houston Center
Tue 12:43:06 PM 29.5419 -92.6586 261° West 415 478 40,000  Level Houston Center
Tue 12:44:08 PM 29.5225 -92.7894 260° West 416 479 40,000 -97 Level Houston Center
Tue 12:45:10 PM 29.5047 -92.9217 261° West 417 480 39,800 -1,200 Descending Houston Center
Tue 12:46:13 PM 29.4847 -93.0536 260° West 419 482 37,500 -2,256 Descending Houston Center
Tue 12:47:15 PM 29.4656 -93.1861 261° West 419 482 35,100 -2,468 Descending Houston Center
Tue 12:48:17 PM 29.4442 -93.3281 260° West 409 471 32,400 -2,468 Descending Houston Center
Tue 12:49:19 PM 29.4267 -93.4497 261° West 395 455 30,000 -2,274 Descending Houston Center
Tue 12:50:21 PM 29.4092 -93.5750 261° West 396 456 27,700 -2,226 Descending Houston Center
Tue 12:51:23 PM 29.3897 -93.7019 260° West 401 461 25,400 -2,468 Descending Houston Center
Tue 12:52:25 PM 29.3669 -93.8511 260° West 399 459 22,600 -2,390 Descending Houston Center
Tue 12:53:21 PM 29.3503 -93.9611 260° West 382 440 20,700 -2,036 Descending Houston Center
Tue 12:54:17 PM 29.3344 -94.0711 261° West 364 419 18,800 -1,875 Descending Houston Center
Tue 12:55:13 PM 29.3189 -94.1669 259° West 348 400 17,200 -1,820 Descending Houston Center
Tue 12:56:19 PM 29.3331 -94.2872 278° West 341 392 15,100 -1,922 Descending Houston Center
Tue 12:57:21 PM 29.3647 -94.3936 289° West 337 388 13,100 -1,795 Descending Houston Center
Tue 12:58:16 PM 29.3922 -94.4811 290° West 333 383 11,600 -1,475 Descending Houston Center
Tue 12:59:23 PM 29.4264 -94.5944 289° West 323 372 10,100 -750 Descending Houston Center
Tue 01:00:24 PM 29.4522 -94.6847 288° West 299 344 10,000 -43 Descending Houston Center
Tue 01:01:44 PM 29.4867 -94.7964 290° West 305 351 10,000  Level Houston Center
Tue 01:02:26 PM 29.5083 -94.8769 287° West 311 358 10,000  Level Houston Center
Tue 01:03:28 PM 29.5386 -94.9742 290° West 311 358 10,000  Level Houston Center
Tue 01:04:29 PM 29.5664 -95.0667 289° West 311 358 10,000  Level Houston Center
Tue 01:05:30 PM 29.5947 -95.1667 288° West 313 360 10,000  Level Houston Center
Tue 01:06:37 PM 29.6250 -95.2664 289° West 295 339 10,000 -469 Level Houston Center
Tue 01:07:38 PM 29.6497 -95.3547 288° West 291 335 9,000 -1,179 Descending Houston Center
Tue 01:08:34 PM 29.6717 -95.4339 288° West 284 327 7,700 -1,436 Descending Houston Center
Tue 01:09:35 PM 29.6964 -95.5197 288° West 283 326 6,200 -1,574 Descending Houston Center
Tue 01:10:36 PM 29.7206 -95.6011 289° West 261 300 4,500 -1,623 Descending Houston Center
Tue 01:11:37 PM 29.7447 -95.6825 289° West 252 290 2,900 -993 Descending Houston Center
Tue 01:13:07 PM 29.7719 -95.7808 288° West 242 278 2,000 -600 Descending Houston Center

Login

Don't have an account? Register now (free) for customized features, flight alerts, and more!